sensor_id;sensor_type;location;lat;lon;timestamp;temperature;humidity
33927;DHT22;20485;50.992;5.550;2023-08-31T00:00:45;11.20;99.90
33927;DHT22;20485;50.992;5.550;2023-08-31T00:03:12;11.10;99.90
33927;DHT22;20485;50.992;5.550;2023-08-31T00:05:41;11.10;99.90
33927;DHT22;20485;50.992;5.550;2023-08-31T00:08:08;11.10;99.90
33927;DHT22;20485;50.992;5.550;2023-08-31T00:10:34;11.00;99.90
33927;DHT22;20485;50.992;5.550;2023-08-31T00:13:01;11.00;99.90
33927;DHT22;20485;50.992;5.550;2023-08-31T00:15:27;11.00;99.90
33927;DHT22;20485;50.992;5.550;2023-08-31T00:17:54;10.90;99.90
33927;DHT22;20485;50.992;5.550;2023-08-31T00:20:20;10.90;99.90
33927;DHT22;20485;50.992;5.550;2023-08-31T00:22:47;10.90;99.90
33927;DHT22;20485;50.992;5.550;2023-08-31T00:25:13;10.80;99.90
33927;DHT22;20485;50.992;5.550;2023-08-31T00:27:39;10.90;99.90
33927;DHT22;20485;50.992;5.550;2023-08-31T00:30:06;10.80;99.90
33927;DHT22;20485;50.992;5.550;2023-08-31T00:32:37;10.80;99.90
33927;DHT22;20485;50.992;5.550;2023-08-31T00:35:05;10.70;99.90
33927;DHT22;20485;50.992;5.550;2023-08-31T00:37:31;10.70;99.90
33927;DHT22;20485;50.992;5.550;2023-08-31T00:39:56;10.70;99.90
33927;DHT22;20485;50.992;5.550;2023-08-31T00:42:22;10.70;99.90
33927;DHT22;20485;50.992;5.550;2023-08-31T00:44:48;10.70;99.90
33927;DHT22;20485;50.992;5.550;2023-08-31T00:47:14;10.70;99.90
33927;DHT22;20485;50.992;5.550;2023-08-31T00:49:41;10.70;99.90
33927;DHT22;20485;50.992;5.550;2023-08-31T00:52:07;10.70;99.90
33927;DHT22;20485;50.992;5.550;2023-08-31T00:54:33;10.70;99.90
33927;DHT22;20485;50.992;5.550;2023-08-31T00:56:59;10.70;99.90
33927;DHT22;20485;50.992;5.550;2023-08-31T00:59:25;10.60;99.90
33927;DHT22;20485;50.992;5.550;2023-08-31T01:04:27;10.60;99.90
33927;DHT22;20485;50.992;5.550;2023-08-31T01:09:54;10.60;99.90
33927;DHT22;20485;50.992;5.550;2023-08-31T01:12:27;10.60;99.90
33927;DHT22;20485;50.992;5.550;2023-08-31T01:15:14;10.50;99.90
33927;DHT22;20485;50.992;5.550;2023-08-31T01:17:47;10.50;99.90
33927;DHT22;20485;50.992;5.550;2023-08-31T01:20:28;10.50;99.90
33927;DHT22;20485;50.992;5.550;2023-08-31T01:23:02;10.40;99.90
33927;DHT22;20485;50.992;5.550;2023-08-31T01:25:31;10.40;99.90
33927;DHT22;20485;50.992;5.550;2023-08-31T01:27:58;10.40;99.90
33927;DHT22;20485;50.992;5.550;2023-08-31T01:30:24;10.40;99.90
33927;DHT22;20485;50.992;5.550;2023-08-31T01:32:50;10.40;99.90
33927;DHT22;20485;50.992;5.550;2023-08-31T01:35:17;10.40;99.90
33927;DHT22;20485;50.992;5.550;2023-08-31T01:38:01;10.30;99.90
33927;DHT22;20485;50.992;5.550;2023-08-31T01:40:44;10.40;99.90
33927;DHT22;20485;50.992;5.550;2023-08-31T01:43:15;10.30;99.90
33927;DHT22;20485;50.992;5.550;2023-08-31T01:45:43;10.30;99.90
33927;DHT22;20485;50.992;5.550;2023-08-31T01:48:09;10.30;99.90
33927;DHT22;20485;50.992;5.550;2023-08-31T01:50:35;10.30;99.90
33927;DHT22;20485;50.992;5.550;2023-08-31T01:53:01;10.30;99.90
33927;DHT22;20485;50.992;5.550;2023-08-31T01:55:26;10.30;99.90
33927;DHT22;20485;50.992;5.550;2023-08-31T01:57:52;10.30;99.90
33927;DHT22;20485;50.992;5.550;2023-08-31T02:00:19;10.30;99.90
33927;DHT22;20485;50.992;5.550;2023-08-31T02:02:45;10.20;99.90
33927;DHT22;20485;50.992;5.550;2023-08-31T02:05:11;10.20;99.90
33927;DHT22;20485;50.992;5.550;2023-08-31T02:07:36;10.20;99.90
33927;DHT22;20485;50.992;5.550;2023-08-31T02:10:03;10.30;99.90
33927;DHT22;20485;50.992;5.550;2023-08-31T02:12:31;10.30;99.90
33927;DHT22;20485;50.992;5.550;2023-08-31T02:14:57;10.20;99.90
33927;DHT22;20485;50.992;5.550;2023-08-31T02:17:23;10.30;99.90
33927;DHT22;20485;50.992;5.550;2023-08-31T02:19:48;10.30;99.90
33927;DHT22;20485;50.992;5.550;2023-08-31T02:22:14;10.30;99.90
33927;DHT22;20485;50.992;5.550;2023-08-31T02:24:40;10.30;99.90
33927;DHT22;20485;50.992;5.550;2023-08-31T02:27:05;10.30;99.90
33927;DHT22;20485;50.992;5.550;2023-08-31T02:29:31;10.30;99.90
33927;DHT22;20485;50.992;5.550;2023-08-31T02:31:57;10.30;99.90
33927;DHT22;20485;50.992;5.550;2023-08-31T02:34:22;10.40;99.90
33927;DHT22;20485;50.992;5.550;2023-08-31T02:36:48;10.30;99.90
33927;DHT22;20485;50.992;5.550;2023-08-31T02:39:14;10.30;99.90
33927;DHT22;20485;50.992;5.550;2023-08-31T02:41:41;10.30;99.90
33927;DHT22;20485;50.992;5.550;2023-08-31T02:44:07;10.30;99.90
33927;DHT22;20485;50.992;5.550;2023-08-31T02:46:32;10.30;99.90
33927;DHT22;20485;50.992;5.550;2023-08-31T02:48:58;10.30;99.90
33927;DHT22;20485;50.992;5.550;2023-08-31T02:51:23;10.30;99.90
33927;DHT22;20485;50.992;5.550;2023-08-31T02:53:49;10.30;99.90
33927;DHT22;20485;50.992;5.550;2023-08-31T02:56:15;10.30;99.90
33927;DHT22;20485;50.992;5.550;2023-08-31T02:58:41;10.20;99.90
33927;DHT22;20485;50.992;5.550;2023-08-31T03:01:11;10.20;99.90
33927;DHT22;20485;50.992;5.550;2023-08-31T03:03:41;10.20;99.90
33927;DHT22;20485;50.992;5.550;2023-08-31T03:06:07;10.20;99.90
33927;DHT22;20485;50.992;5.550;2023-08-31T03:08:36;10.20;99.90
33927;DHT22;20485;50.992;5.550;2023-08-31T03:11:03;10.20;99.90
33927;DHT22;20485;50.992;5.550;2023-08-31T03:13:30;10.20;99.90
33927;DHT22;20485;50.992;5.550;2023-08-31T03:15:56;10.20;99.90
33927;DHT22;20485;50.992;5.550;2023-08-31T03:18:22;10.10;99.90
33927;DHT22;20485;50.992;5.550;2023-08-31T03:20:48;10.10;99.90
33927;DHT22;20485;50.992;5.550;2023-08-31T03:23:14;10.10;99.90
33927;DHT22;20485;50.992;5.550;2023-08-31T03:25:40;10.10;99.90
33927;DHT22;20485;50.992;5.550;2023-08-31T03:28:06;10.00;99.90
33927;DHT22;20485;50.992;5.550;2023-08-31T03:30:32;10.00;99.90
33927;DHT22;20485;50.992;5.550;2023-08-31T03:32:57;10.00;99.90
33927;DHT22;20485;50.992;5.550;2023-08-31T03:35:23;10.00;99.90
33927;DHT22;20485;50.992;5.550;2023-08-31T03:37:53;9.90;99.90
33927;DHT22;20485;50.992;5.550;2023-08-31T03:40:19;10.00;99.90
33927;DHT22;20485;50.992;5.550;2023-08-31T03:42:44;9.90;99.90
33927;DHT22;20485;50.992;5.550;2023-08-31T03:45:11;9.90;99.90
33927;DHT22;20485;50.992;5.550;2023-08-31T03:47:37;10.00;99.90
33927;DHT22;20485;50.992;5.550;2023-08-31T03:50:03;10.00;99.90
33927;DHT22;20485;50.992;5.550;2023-08-31T03:52:29;10.00;99.90
33927;DHT22;20485;50.992;5.550;2023-08-31T03:54:55;9.90;99.90
33927;DHT22;20485;50.992;5.550;2023-08-31T03:57:21;9.90;99.90
33927;DHT22;20485;50.992;5.550;2023-08-31T03:59:46;9.80;99.90
33927;DHT22;20485;50.992;5.550;2023-08-31T04:02:12;9.80;99.90
33927;DHT22;20485;50.992;5.550;2023-08-31T04:04:38;9.80;99.90
33927;DHT22;20485;50.992;5.550;2023-08-31T04:07:05;9.80;99.90
33927;DHT22;20485;50.992;5.550;2023-08-31T04:09:31;9.80;99.90
33927;DHT22;20485;50.992;5.550;2023-08-31T04:11:57;9.70;99.90
33927;DHT22;20485;50.992;5.550;2023-08-31T04:14:23;9.70;99.90
33927;DHT22;20485;50.992;5.550;2023-08-31T04:16:48;9.70;99.90
33927;DHT22;20485;50.992;5.550;2023-08-31T04:19:16;9.60;99.90
33927;DHT22;20485;50.992;5.550;2023-08-31T04:21:43;9.60;99.90
33927;DHT22;20485;50.992;5.550;2023-08-31T04:24:09;9.60;99.90
33927;DHT22;20485;50.992;5.550;2023-08-31T04:26:35;9.60;99.90
33927;DHT22;20485;50.992;5.550;2023-08-31T04:29:02;9.60;99.90
33927;DHT22;20485;50.992;5.550;2023-08-31T04:31:28;9.60;99.90
33927;DHT22;20485;50.992;5.550;2023-08-31T04:33:55;9.60;99.90
33927;DHT22;20485;50.992;5.550;2023-08-31T04:36:21;9.60;99.90
33927;DHT22;20485;50.992;5.550;2023-08-31T04:38:49;9.50;99.90
33927;DHT22;20485;50.992;5.550;2023-08-31T04:41:15;9.50;99.90
33927;DHT22;20485;50.992;5.550;2023-08-31T04:43:40;9.50;99.90
33927;DHT22;20485;50.992;5.550;2023-08-31T04:46:06;9.50;99.90
33927;DHT22;20485;50.992;5.550;2023-08-31T04:48:32;9.50;99.90
33927;DHT22;20485;50.992;5.550;2023-08-31T04:50:58;9.50;99.90
33927;DHT22;20485;50.992;5.550;2023-08-31T04:53:24;9.50;99.90
33927;DHT22;20485;50.992;5.550;2023-08-31T04:55:50;9.60;99.90
33927;DHT22;20485;50.992;5.550;2023-08-31T04:58:16;9.60;99.90
33927;DHT22;20485;50.992;5.550;2023-08-31T05:00:42;9.60;99.90
33927;DHT22;20485;50.992;5.550;2023-08-31T05:03:10;9.70;99.90
33927;DHT22;20485;50.992;5.550;2023-08-31T05:05:35;9.70;99.90
33927;DHT22;20485;50.992;5.550;2023-08-31T05:08:02;9.70;99.90
33927;DHT22;20485;50.992;5.550;2023-08-31T05:10:28;9.70;99.90
33927;DHT22;20485;50.992;5.550;2023-08-31T05:12:54;9.70;99.90
33927;DHT22;20485;50.992;5.550;2023-08-31T05:15:20;9.70;99.90
33927;DHT22;20485;50.992;5.550;2023-08-31T05:17:45;9.70;99.90
33927;DHT22;20485;50.992;5.550;2023-08-31T05:20:11;9.80;99.90
33927;DHT22;20485;50.992;5.550;2023-08-31T05:22:38;9.70;99.90
33927;DHT22;20485;50.992;5.550;2023-08-31T05:25:04;9.70;99.90
33927;DHT22;20485;50.992;5.550;2023-08-31T05:27:29;9.80;99.90
33927;DHT22;20485;50.992;5.550;2023-08-31T05:29:55;9.80;99.90
33927;DHT22;20485;50.992;5.550;2023-08-31T05:32:21;9.80;99.90
33927;DHT22;20485;50.992;5.550;2023-08-31T05:34:46;9.80;99.90
33927;DHT22;20485;50.992;5.550;2023-08-31T05:37:12;9.80;99.90
33927;DHT22;20485;50.992;5.550;2023-08-31T05:39:39;9.90;99.90
33927;DHT22;20485;50.992;5.550;2023-08-31T05:42:05;9.90;99.90
33927;DHT22;20485;50.992;5.550;2023-08-31T05:44:30;10.00;99.90
33927;DHT22;20485;50.992;5.550;2023-08-31T05:46:56;10.00;99.90
33927;DHT22;20485;50.992;5.550;2023-08-31T05:49:22;10.10;99.90
33927;DHT22;20485;50.992;5.550;2023-08-31T05:51:49;10.10;99.90
33927;DHT22;20485;50.992;5.550;2023-08-31T05:54:16;10.10;99.90
33927;DHT22;20485;50.992;5.550;2023-08-31T05:56:42;10.20;99.90
33927;DHT22;20485;50.992;5.550;2023-08-31T05:59:08;10.30;99.90
33927;DHT22;20485;50.992;5.550;2023-08-31T06:01:35;10.30;99.90
33927;DHT22;20485;50.992;5.550;2023-08-31T06:04:01;10.40;99.90
33927;DHT22;20485;50.992;5.550;2023-08-31T06:06:28;10.40;99.90
33927;DHT22;20485;50.992;5.550;2023-08-31T06:08:54;10.40;99.90
33927;DHT22;20485;50.992;5.550;2023-08-31T06:11:20;10.50;99.90
33927;DHT22;20485;50.992;5.550;2023-08-31T06:13:46;10.60;99.90
33927;DHT22;20485;50.992;5.550;2023-08-31T06:16:12;10.70;99.90
33927;DHT22;20485;50.992;5.550;2023-08-31T06:18:38;10.70;99.90
33927;DHT22;20485;50.992;5.550;2023-08-31T06:21:04;10.80;99.90
33927;DHT22;20485;50.992;5.550;2023-08-31T06:23:30;10.80;99.90
33927;DHT22;20485;50.992;5.550;2023-08-31T06:25:56;10.90;99.90
33927;DHT22;20485;50.992;5.550;2023-08-31T06:28:21;11.00;99.90
33927;DHT22;20485;50.992;5.550;2023-08-31T06:30:47;11.00;99.90
33927;DHT22;20485;50.992;5.550;2023-08-31T06:33:16;11.10;99.90
33927;DHT22;20485;50.992;5.550;2023-08-31T06:35:47;11.10;99.90
33927;DHT22;20485;50.992;5.550;2023-08-31T06:38:14;11.20;99.90
33927;DHT22;20485;50.992;5.550;2023-08-31T06:40:42;11.20;99.90
33927;DHT22;20485;50.992;5.550;2023-08-31T06:43:08;11.20;99.90
33927;DHT22;20485;50.992;5.550;2023-08-31T06:45:34;11.30;99.90
33927;DHT22;20485;50.992;5.550;2023-08-31T06:48:01;11.30;99.90
33927;DHT22;20485;50.992;5.550;2023-08-31T06:50:27;11.30;99.90
33927;DHT22;20485;50.992;5.550;2023-08-31T06:52:53;11.30;99.90
33927;DHT22;20485;50.992;5.550;2023-08-31T06:55:19;11.30;99.90
33927;DHT22;20485;50.992;5.550;2023-08-31T06:57:44;11.40;99.90
33927;DHT22;20485;50.992;5.550;2023-08-31T07:00:11;11.40;99.90
33927;DHT22;20485;50.992;5.550;2023-08-31T07:02:39;11.50;99.90
33927;DHT22;20485;50.992;5.550;2023-08-31T07:05:06;11.50;99.90
33927;DHT22;20485;50.992;5.550;2023-08-31T07:07:32;11.60;99.90
33927;DHT22;20485;50.992;5.550;2023-08-31T07:09:57;11.60;99.90
33927;DHT22;20485;50.992;5.550;2023-08-31T07:12:23;11.70;99.90
33927;DHT22;20485;50.992;5.550;2023-08-31T07:14:49;11.80;99.90
33927;DHT22;20485;50.992;5.550;2023-08-31T07:17:18;11.80;99.90
33927;DHT22;20485;50.992;5.550;2023-08-31T07:19:44;11.90;99.90
33927;DHT22;20485;50.992;5.550;2023-08-31T07:22:10;11.90;99.90
33927;DHT22;20485;50.992;5.550;2023-08-31T07:24:36;12.00;99.90
33927;DHT22;20485;50.992;5.550;2023-08-31T07:27:02;12.10;99.90
33927;DHT22;20485;50.992;5.550;2023-08-31T07:29:29;12.20;99.90
33927;DHT22;20485;50.992;5.550;2023-08-31T07:31:54;12.20;99.90
33927;DHT22;20485;50.992;5.550;2023-08-31T07:34:20;12.30;99.90
33927;DHT22;20485;50.992;5.550;2023-08-31T07:36:46;12.40;99.90
33927;DHT22;20485;50.992;5.550;2023-08-31T07:39:12;12.50;99.90
33927;DHT22;20485;50.992;5.550;2023-08-31T07:41:37;12.50;99.90
33927;DHT22;20485;50.992;5.550;2023-08-31T07:44:04;12.60;99.90
33927;DHT22;20485;50.992;5.550;2023-08-31T07:46:29;12.70;99.90
33927;DHT22;20485;50.992;5.550;2023-08-31T07:48:55;12.80;99.90
33927;DHT22;20485;50.992;5.550;2023-08-31T07:51:21;12.80;99.90
33927;DHT22;20485;50.992;5.550;2023-08-31T07:53:49;12.80;99.90
33927;DHT22;20485;50.992;5.550;2023-08-31T07:56:15;12.90;99.90
33927;DHT22;20485;50.992;5.550;2023-08-31T07:58:41;13.00;99.90
33927;DHT22;20485;50.992;5.550;2023-08-31T08:01:07;13.10;99.90
33927;DHT22;20485;50.992;5.550;2023-08-31T08:03:32;13.10;99.90
33927;DHT22;20485;50.992;5.550;2023-08-31T08:05:58;13.20;99.90
33927;DHT22;20485;50.992;5.550;2023-08-31T08:08:24;13.20;99.90
33927;DHT22;20485;50.992;5.550;2023-08-31T08:10:53;13.30;99.90
33927;DHT22;20485;50.992;5.550;2023-08-31T08:13:19;13.40;99.90
33927;DHT22;20485;50.992;5.550;2023-08-31T08:15:47;13.50;99.90
33927;DHT22;20485;50.992;5.550;2023-08-31T08:18:13;13.60;99.90
33927;DHT22;20485;50.992;5.550;2023-08-31T08:20:39;13.70;99.90
33927;DHT22;20485;50.992;5.550;2023-08-31T08:23:05;13.80;99.90
33927;DHT22;20485;50.992;5.550;2023-08-31T08:25:31;13.90;99.90
33927;DHT22;20485;50.992;5.550;2023-08-31T08:27:57;13.90;99.90
33927;DHT22;20485;50.992;5.550;2023-08-31T08:30:22;14.00;99.90
33927;DHT22;20485;50.992;5.550;2023-08-31T08:32:48;14.00;99.90
33927;DHT22;20485;50.992;5.550;2023-08-31T08:35:14;14.10;99.90
33927;DHT22;20485;50.992;5.550;2023-08-31T08:37:40;14.20;99.90
33927;DHT22;20485;50.992;5.550;2023-08-31T08:40:06;14.20;99.90
33927;DHT22;20485;50.992;5.550;2023-08-31T08:42:32;14.20;99.90
33927;DHT22;20485;50.992;5.550;2023-08-31T08:45:05;14.20;99.90
33927;DHT22;20485;50.992;5.550;2023-08-31T08:47:32;14.30;99.90
33927;DHT22;20485;50.992;5.550;2023-08-31T08:49:59;14.40;99.90
33927;DHT22;20485;50.992;5.550;2023-08-31T08:52:26;14.60;99.90
33927;DHT22;20485;50.992;5.550;2023-08-31T08:54:52;14.70;99.90
33927;DHT22;20485;50.992;5.550;2023-08-31T08:57:19;14.80;99.90
33927;DHT22;20485;50.992;5.550;2023-08-31T08:59:44;14.80;99.90
33927;DHT22;20485;50.992;5.550;2023-08-31T09:02:11;14.80;99.90
33927;DHT22;20485;50.992;5.550;2023-08-31T09:04:39;14.90;99.90
33927;DHT22;20485;50.992;5.550;2023-08-31T09:07:05;15.00;99.90
33927;DHT22;20485;50.992;5.550;2023-08-31T09:09:31;15.20;99.90
33927;DHT22;20485;50.992;5.550;2023-08-31T09:12:06;15.20;99.90
33927;DHT22;20485;50.992;5.550;2023-08-31T09:14:32;15.20;99.90
33927;DHT22;20485;50.992;5.550;2023-08-31T09:16:57;15.30;99.90
33927;DHT22;20485;50.992;5.550;2023-08-31T09:19:25;15.40;99.90
33927;DHT22;20485;50.992;5.550;2023-08-31T09:21:56;15.50;99.90
33927;DHT22;20485;50.992;5.550;2023-08-31T09:24:22;15.60;99.90
33927;DHT22;20485;50.992;5.550;2023-08-31T09:26:58;15.60;99.90
33927;DHT22;20485;50.992;5.550;2023-08-31T09:29:24;15.60;99.90
33927;DHT22;20485;50.992;5.550;2023-08-31T09:31:50;15.70;99.90
33927;DHT22;20485;50.992;5.550;2023-08-31T09:34:17;15.80;99.90
33927;DHT22;20485;50.992;5.550;2023-08-31T09:36:44;15.80;99.90
33927;DHT22;20485;50.992;5.550;2023-08-31T09:39:10;16.00;99.90
33927;DHT22;20485;50.992;5.550;2023-08-31T09:41:55;16.00;99.90
33927;DHT22;20485;50.992;5.550;2023-08-31T09:44:21;15.90;99.90
33927;DHT22;20485;50.992;5.550;2023-08-31T09:46:47;16.10;99.90
33927;DHT22;20485;50.992;5.550;2023-08-31T09:49:14;16.30;99.90
33927;DHT22;20485;50.992;5.550;2023-08-31T09:51:44;16.60;99.90
33927;DHT22;20485;50.992;5.550;2023-08-31T09:54:14;16.80;99.90
33927;DHT22;20485;50.992;5.550;2023-08-31T09:56:42;16.90;99.90
33927;DHT22;20485;50.992;5.550;2023-08-31T09:59:10;16.90;99.90
33927;DHT22;20485;50.992;5.550;2023-08-31T10:01:37;17.10;99.90
33927;DHT22;20485;50.992;5.550;2023-08-31T10:04:03;17.10;99.90
33927;DHT22;20485;50.992;5.550;2023-08-31T10:06:30;16.90;99.90
33927;DHT22;20485;50.992;5.550;2023-08-31T10:08:57;16.70;99.90
33927;DHT22;20485;50.992;5.550;2023-08-31T10:11:24;16.80;99.90
33927;DHT22;20485;50.992;5.550;2023-08-31T10:13:51;16.90;99.90
33927;DHT22;20485;50.992;5.550;2023-08-31T10:16:20;17.10;99.90
33927;DHT22;20485;50.992;5.550;2023-08-31T10:18:47;17.30;99.90
33927;DHT22;20485;50.992;5.550;2023-08-31T10:21:16;17.30;99.90
33927;DHT22;20485;50.992;5.550;2023-08-31T10:23:49;17.10;99.90
33927;DHT22;20485;50.992;5.550;2023-08-31T10:26:28;17.10;99.90
33927;DHT22;20485;50.992;5.550;2023-08-31T10:28:54;17.00;99.90
33927;DHT22;20485;50.992;5.550;2023-08-31T10:31:21;17.10;99.90
33927;DHT22;20485;50.992;5.550;2023-08-31T10:34:00;17.00;99.90
33927;DHT22;20485;50.992;5.550;2023-08-31T10:36:37;16.90;99.90
33927;DHT22;20485;50.992;5.550;2023-08-31T10:39:17;16.90;99.90
33927;DHT22;20485;50.992;5.550;2023-08-31T10:41:56;17.00;99.90
33927;DHT22;20485;50.992;5.550;2023-08-31T10:44:23;16.90;99.90
33927;DHT22;20485;50.992;5.550;2023-08-31T10:46:50;17.00;99.90
33927;DHT22;20485;50.992;5.550;2023-08-31T10:49:20;16.90;99.90
33927;DHT22;20485;50.992;5.550;2023-08-31T10:51:49;17.00;99.90
33927;DHT22;20485;50.992;5.550;2023-08-31T10:54:31;17.20;99.90
33927;DHT22;20485;50.992;5.550;2023-08-31T10:59:40;17.50;99.90
33927;DHT22;20485;50.992;5.550;2023-08-31T11:02:06;17.30;99.90
33927;DHT22;20485;50.992;5.550;2023-08-31T11:04:52;17.20;99.90
33927;DHT22;20485;50.992;5.550;2023-08-31T11:07:19;17.20;99.90
33927;DHT22;20485;50.992;5.550;2023-08-31T11:09:46;17.30;99.90
33927;DHT22;20485;50.992;5.550;2023-08-31T11:12:12;17.50;99.90
33927;DHT22;20485;50.992;5.550;2023-08-31T11:14:39;17.50;99.90
33927;DHT22;20485;50.992;5.550;2023-08-31T11:17:05;17.50;99.90
33927;DHT22;20485;50.992;5.550;2023-08-31T11:19:32;17.40;99.90
33927;DHT22;20485;50.992;5.550;2023-08-31T11:22:00;17.70;99.90
33927;DHT22;20485;50.992;5.550;2023-08-31T11:24:28;17.90;99.90
33927;DHT22;20485;50.992;5.550;2023-08-31T11:26:54;17.90;99.90
33927;DHT22;20485;50.992;5.550;2023-08-31T11:29:21;18.00;99.90
33927;DHT22;20485;50.992;5.550;2023-08-31T11:31:46;18.00;99.90
33927;DHT22;20485;50.992;5.550;2023-08-31T11:34:17;18.10;99.90
33927;DHT22;20485;50.992;5.550;2023-08-31T11:36:44;18.00;99.90
33927;DHT22;20485;50.992;5.550;2023-08-31T11:39:10;17.90;99.90
33927;DHT22;20485;50.992;5.550;2023-08-31T11:41:36;17.90;99.90
33927;DHT22;20485;50.992;5.550;2023-08-31T11:44:08;18.00;99.90
33927;DHT22;20485;50.992;5.550;2023-08-31T11:46:36;18.20;99.90
33927;DHT22;20485;50.992;5.550;2023-08-31T11:49:02;18.30;99.90
33927;DHT22;20485;50.992;5.550;2023-08-31T11:51:30;18.60;99.90
33927;DHT22;20485;50.992;5.550;2023-08-31T11:53:57;18.50;99.90
33927;DHT22;20485;50.992;5.550;2023-08-31T11:56:25;18.30;99.90
33927;DHT22;20485;50.992;5.550;2023-08-31T11:58:51;18.20;99.90
33927;DHT22;20485;50.992;5.550;2023-08-31T12:01:21;18.30;99.90
33927;DHT22;20485;50.992;5.550;2023-08-31T12:03:47;18.20;99.90
33927;DHT22;20485;50.992;5.550;2023-08-31T12:06:16;18.20;99.90
33927;DHT22;20485;50.992;5.550;2023-08-31T12:08:45;18.30;99.90
33927;DHT22;20485;50.992;5.550;2023-08-31T12:11:11;18.50;99.90
33927;DHT22;20485;50.992;5.550;2023-08-31T12:13:37;18.80;99.90
33927;DHT22;20485;50.992;5.550;2023-08-31T12:16:03;18.70;99.90
33927;DHT22;20485;50.992;5.550;2023-08-31T12:18:30;18.50;99.90
33927;DHT22;20485;50.992;5.550;2023-08-31T12:20:59;18.60;99.90
33927;DHT22;20485;50.992;5.550;2023-08-31T12:23:26;18.50;99.90
33927;DHT22;20485;50.992;5.550;2023-08-31T12:25:53;18.80;99.90
33927;DHT22;20485;50.992;5.550;2023-08-31T12:28:20;19.20;99.90
33927;DHT22;20485;50.992;5.550;2023-08-31T12:30:51;19.00;99.90
33927;DHT22;20485;50.992;5.550;2023-08-31T12:33:18;18.80;99.90
33927;DHT22;20485;50.992;5.550;2023-08-31T12:35:44;18.70;99.90
33927;DHT22;20485;50.992;5.550;2023-08-31T12:38:11;18.70;99.90
33927;DHT22;20485;50.992;5.550;2023-08-31T12:40:37;18.50;99.90
33927;DHT22;20485;50.992;5.550;2023-08-31T12:43:06;18.30;99.90
33927;DHT22;20485;50.992;5.550;2023-08-31T12:45:33;18.20;99.90
33927;DHT22;20485;50.992;5.550;2023-08-31T12:47:59;18.10;99.90
33927;DHT22;20485;50.992;5.550;2023-08-31T12:50:25;18.20;99.90
33927;DHT22;20485;50.992;5.550;2023-08-31T12:52:51;18.60;99.90
33927;DHT22;20485;50.992;5.550;2023-08-31T12:55:17;18.70;99.90
33927;DHT22;20485;50.992;5.550;2023-08-31T12:57:43;18.60;99.90
33927;DHT22;20485;50.992;5.550;2023-08-31T13:00:09;18.40;99.90
33927;DHT22;20485;50.992;5.550;2023-08-31T13:02:39;18.50;99.90
33927;DHT22;20485;50.992;5.550;2023-08-31T13:05:06;18.80;99.90
33927;DHT22;20485;50.992;5.550;2023-08-31T13:07:36;18.80;99.90
33927;DHT22;20485;50.992;5.550;2023-08-31T13:10:03;19.00;99.90
33927;DHT22;20485;50.992;5.550;2023-08-31T13:12:30;19.30;99.90
33927;DHT22;20485;50.992;5.550;2023-08-31T13:14:56;19.50;99.90
33927;DHT22;20485;50.992;5.550;2023-08-31T13:17:22;19.40;99.90
33927;DHT22;20485;50.992;5.550;2023-08-31T13:19:58;19.30;99.90
33927;DHT22;20485;50.992;5.550;2023-08-31T13:22:24;19.60;99.90
33927;DHT22;20485;50.992;5.550;2023-08-31T13:24:50;19.30;99.90
33927;DHT22;20485;50.992;5.550;2023-08-31T13:27:16;19.00;99.90
33927;DHT22;20485;50.992;5.550;2023-08-31T13:29:43;19.10;99.90
33927;DHT22;20485;50.992;5.550;2023-08-31T13:32:09;19.30;99.90
33927;DHT22;20485;50.992;5.550;2023-08-31T13:34:35;19.50;99.90
33927;DHT22;20485;50.992;5.550;2023-08-31T13:37:02;19.60;99.90
33927;DHT22;20485;50.992;5.550;2023-08-31T13:39:33;19.40;99.90
33927;DHT22;20485;50.992;5.550;2023-08-31T13:41:59;19.40;99.90
33927;DHT22;20485;50.992;5.550;2023-08-31T13:44:27;19.40;99.90
33927;DHT22;20485;50.992;5.550;2023-08-31T13:46:53;19.30;99.90
33927;DHT22;20485;50.992;5.550;2023-08-31T13:49:18;19.20;99.90
33927;DHT22;20485;50.992;5.550;2023-08-31T13:51:44;18.90;99.90
33927;DHT22;20485;50.992;5.550;2023-08-31T13:54:10;18.70;99.90
33927;DHT22;20485;50.992;5.550;2023-08-31T13:56:37;18.40;99.90
33927;DHT22;20485;50.992;5.550;2023-08-31T13:59:02;18.30;99.90
33927;DHT22;20485;50.992;5.550;2023-08-31T14:01:28;18.00;99.90
33927;DHT22;20485;50.992;5.550;2023-08-31T14:03:54;18.00;99.90
33927;DHT22;20485;50.992;5.550;2023-08-31T14:06:19;18.10;99.90
33927;DHT22;20485;50.992;5.550;2023-08-31T14:08:45;18.20;99.90
33927;DHT22;20485;50.992;5.550;2023-08-31T14:11:11;18.30;99.90
33927;DHT22;20485;50.992;5.550;2023-08-31T14:13:39;18.30;99.90
33927;DHT22;20485;50.992;5.550;2023-08-31T14:16:06;18.40;99.90
33927;DHT22;20485;50.992;5.550;2023-08-31T14:18:32;18.40;99.90
33927;DHT22;20485;50.992;5.550;2023-08-31T14:20:58;18.40;99.90
33927;DHT22;20485;50.992;5.550;2023-08-31T14:23:25;18.30;99.90
33927;DHT22;20485;50.992;5.550;2023-08-31T14:25:51;18.30;99.90
33927;DHT22;20485;50.992;5.550;2023-08-31T14:28:16;18.30;99.90
33927;DHT22;20485;50.992;5.550;2023-08-31T14:30:42;18.30;99.90
33927;DHT22;20485;50.992;5.550;2023-08-31T14:33:08;18.30;99.90
33927;DHT22;20485;50.992;5.550;2023-08-31T14:35:37;18.10;99.90
33927;DHT22;20485;50.992;5.550;2023-08-31T14:38:04;18.20;99.90
33927;DHT22;20485;50.992;5.550;2023-08-31T14:40:30;18.30;99.90
33927;DHT22;20485;50.992;5.550;2023-08-31T14:42:55;18.40;99.90
33927;DHT22;20485;50.992;5.550;2023-08-31T14:45:21;18.50;99.90
33927;DHT22;20485;50.992;5.550;2023-08-31T14:47:47;18.50;99.90
33927;DHT22;20485;50.992;5.550;2023-08-31T14:50:12;18.60;99.90
33927;DHT22;20485;50.992;5.550;2023-08-31T14:52:38;18.70;99.90
33927;DHT22;20485;50.992;5.550;2023-08-31T14:55:04;18.70;99.90
33927;DHT22;20485;50.992;5.550;2023-08-31T14:57:30;18.70;99.90
33927;DHT22;20485;50.992;5.550;2023-08-31T14:59:56;18.80;99.90
33927;DHT22;20485;50.992;5.550;2023-08-31T15:02:24;18.60;99.90
33927;DHT22;20485;50.992;5.550;2023-08-31T15:04:50;18.70;99.90
33927;DHT22;20485;50.992;5.550;2023-08-31T15:07:16;18.60;99.90
33927;DHT22;20485;50.992;5.550;2023-08-31T15:09:43;18.50;99.90
33927;DHT22;20485;50.992;5.550;2023-08-31T15:12:11;18.50;99.90
33927;DHT22;20485;50.992;5.550;2023-08-31T15:14:37;18.60;99.90
33927;DHT22;20485;50.992;5.550;2023-08-31T15:17:06;18.50;99.90
33927;DHT22;20485;50.992;5.550;2023-08-31T15:19:39;18.60;99.90
33927;DHT22;20485;50.992;5.550;2023-08-31T15:22:04;18.60;99.90
33927;DHT22;20485;50.992;5.550;2023-08-31T15:24:30;18.60;99.90
33927;DHT22;20485;50.992;5.550;2023-08-31T15:26:57;18.70;99.90
33927;DHT22;20485;50.992;5.550;2023-08-31T15:29:24;18.60;99.90
33927;DHT22;20485;50.992;5.550;2023-08-31T15:31:50;18.60;99.90
33927;DHT22;20485;50.992;5.550;2023-08-31T15:34:16;18.50;99.90
33927;DHT22;20485;50.992;5.550;2023-08-31T15:36:42;18.50;99.90
33927;DHT22;20485;50.992;5.550;2023-08-31T15:39:08;18.30;99.90